createdAt,value
2022-10-26T06:15:35.806Z,7.40
2022-10-26T06:25:35.514Z,7.32
2022-10-26T06:35:35.647Z,7.25
2022-10-26T06:45:35.566Z,7.42
2022-10-26T06:55:35.598Z,7.23
2022-10-26T07:05:35.556Z,7.24
2022-10-26T07:15:35.636Z,7.71
2022-10-26T07:25:35.773Z,8.48
2022-10-26T07:35:35.691Z,9.26
2022-10-26T07:45:35.789Z,10.60
2022-10-26T07:55:35.707Z,10.56
2022-10-26T08:05:35.660Z,10.15
2022-10-26T08:15:35.735Z,10.63
2022-10-26T08:25:35.685Z,11.10
2022-10-26T08:35:35.799Z,11.48
2022-10-26T08:45:37.083Z,11.87
2022-10-26T08:55:36.050Z,12.05
2022-10-26T09:05:36.933Z,12.33
2022-10-26T09:15:36.064Z,12.57
2022-10-26T09:25:36.060Z,12.69
2022-10-26T09:35:36.107Z,13.06
2022-10-26T09:45:35.969Z,13.76
2022-10-26T09:55:35.923Z,14.84
2022-10-26T10:05:51.232Z,14.73
2022-10-26T10:15:35.959Z,14.78
2022-10-26T10:25:36.107Z,15.16
2022-10-26T10:35:35.855Z,15.11
2022-10-26T10:45:36.165Z,15.16
2022-10-26T10:55:36.008Z,15.26
2022-10-26T11:05:36.029Z,15.61
2022-10-26T11:15:36.152Z,15.62
2022-10-26T11:25:35.984Z,15.54
2022-10-26T11:35:36.026Z,15.67
2022-10-26T11:45:36.056Z,15.91
2022-10-26T11:55:36.038Z,16.60
2022-10-26T12:05:35.950Z,16.60
2022-10-26T12:16:01.615Z,16.40
2022-10-26T12:25:36.042Z,16.57
2022-10-26T12:35:36.039Z,17.06
2022-10-26T12:45:36.137Z,17.27
2022-10-26T12:55:36.045Z,17.34
2022-10-26T13:05:36.115Z,17.48
2022-10-26T13:15:36.002Z,17.41
2022-10-26T13:25:36.181Z,17.38
2022-10-26T13:35:36.056Z,18.07
2022-10-26T13:45:36.053Z,17.98
2022-10-26T13:55:36.128Z,18.05
2022-10-26T14:05:36.127Z,17.74
2022-10-26T14:15:36.174Z,18.83
2022-10-26T14:25:42.190Z,18.64
2022-10-26T14:35:36.273Z,18.17
2022-10-26T14:45:48.959Z,17.98
2022-10-26T14:55:36.129Z,17.77
2022-10-26T15:05:36.205Z,17.39
2022-10-26T15:15:38.911Z,17.08
2022-10-26T15:25:36.308Z,16.77
2022-10-26T15:35:36.168Z,16.46
2022-10-26T15:45:36.133Z,16.12
2022-10-26T15:55:36.216Z,15.83
2022-10-26T16:05:36.156Z,15.41
2022-10-26T16:15:36.285Z,15.12
2022-10-26T16:25:36.346Z,14.97
2022-10-26T16:35:36.525Z,14.75
2022-10-26T16:45:36.446Z,14.20
2022-10-26T16:55:36.612Z,14.04
2022-10-26T17:05:36.526Z,13.54
2022-10-26T17:15:36.418Z,13.04
2022-10-26T17:25:36.505Z,12.79
2022-10-26T17:35:36.528Z,12.62
2022-10-26T17:45:36.594Z,12.42
2022-10-26T17:55:36.487Z,12.52
2022-10-26T18:05:36.466Z,12.83
2022-10-26T18:15:36.422Z,13.01
2022-10-26T18:25:36.681Z,13.15
2022-10-26T18:35:36.541Z,13.00
2022-10-26T18:45:36.485Z,12.81
2022-10-26T18:55:36.614Z,12.83
2022-10-26T19:05:36.695Z,13.18
2022-10-26T19:15:36.592Z,13.20
